createdAt,value
2019-05-25T00:07:54.086Z,68.31
2019-05-25T00:17:57.424Z,70.55
2019-05-25T00:27:54.182Z,71.93
2019-05-25T00:37:54.090Z,73.29
2019-05-25T00:47:55.173Z,75.21
2019-05-25T00:57:54.258Z,75.24
2019-05-25T01:07:54.336Z,76.39
2019-05-25T01:17:54.157Z,77.78
2019-05-25T01:27:54.149Z,78.17
2019-05-25T01:37:54.092Z,79.25
2019-05-25T01:47:54.167Z,80.40
2019-05-25T01:57:54.135Z,78.98
2019-05-25T02:07:54.205Z,76.97
2019-05-25T02:17:54.146Z,75.82
2019-05-25T02:27:54.861Z,76.00
2019-05-25T02:37:54.102Z,76.89
2019-05-25T02:47:54.193Z,78.59
2019-05-25T02:57:54.150Z,79.91
2019-05-25T03:07:54.143Z,82.23
2019-05-25T03:17:54.175Z,83.26
2019-05-25T03:27:54.156Z,83.56
2019-05-25T03:37:54.014Z,84.75
2019-05-25T03:47:54.175Z,85.63
2019-05-25T03:57:54.167Z,87.04
2019-05-25T04:07:54.033Z,87.86
2019-05-25T04:17:54.173Z,88.65
2019-05-25T04:27:54.151Z,88.84
2019-05-25T04:37:54.120Z,89.08
2019-05-25T04:47:54.168Z,88.33
2019-05-25T04:57:54.254Z,87.51
2019-05-25T05:07:54.226Z,86.93
2019-05-25T05:17:54.177Z,85.88
2019-05-25T05:27:54.143Z,83.31
2019-05-25T05:37:54.201Z,80.21
2019-05-25T05:47:54.174Z,78.51
2019-05-25T05:57:54.158Z,77.84
2019-05-25T06:07:54.113Z,76.54
2019-05-25T06:17:54.199Z,75.45
2019-05-25T06:27:54.163Z,72.28
2019-05-25T06:37:54.114Z,68.59
2019-05-25T06:47:54.199Z,70.14
2019-05-25T06:57:54.158Z,65.02
2019-05-25T07:07:55.268Z,63.48
2019-05-25T07:17:54.183Z,60.60
2019-05-25T07:27:59.780Z,58.07
2019-05-25T07:37:54.122Z,54.29
2019-05-25T07:47:54.188Z,57.67
2019-05-25T07:57:54.195Z,58.57
2019-05-25T08:07:54.154Z,59.66
2019-05-25T08:17:54.183Z,59.86
2019-05-25T08:27:54.184Z,54.79
2019-05-25T08:37:54.117Z,55.63
2019-05-25T08:47:57.090Z,57.53
2019-05-25T08:57:54.894Z,52.28
2019-05-25T09:07:54.235Z,53.12
2019-05-25T09:17:54.213Z,49.37
2019-05-25T09:27:54.251Z,45.78
2019-05-25T09:37:54.249Z,48.18
2019-05-25T09:47:54.218Z,47.02
2019-05-25T09:57:54.163Z,48.91
2019-05-25T10:07:54.102Z,49.99
2019-05-25T10:17:54.205Z,54.48
2019-05-25T10:27:54.164Z,50.93
2019-05-25T10:37:54.252Z,46.21
2019-05-25T10:47:54.197Z,43.59
2019-05-25T10:57:54.234Z,45.77
2019-05-25T11:07:54.232Z,49.25
2019-05-25T11:17:54.228Z,50.46
2019-05-25T11:27:54.173Z,52.06
2019-05-25T11:37:54.239Z,59.66
2019-05-25T11:47:54.213Z,63.19
2019-05-25T11:57:54.274Z,62.69
2019-05-25T12:07:54.244Z,58.88
2019-05-25T12:17:54.236Z,56.48
2019-05-25T12:27:55.223Z,54.83
2019-05-25T12:37:54.265Z,51.20
2019-05-25T12:47:54.198Z,47.62
2019-05-25T12:57:54.287Z,54.81
2019-05-25T13:07:54.354Z,47.61
2019-05-25T13:17:54.226Z,45.53
2019-05-25T13:27:54.302Z,46.51
2019-05-25T13:37:54.330Z,47.19
2019-05-25T13:47:54.224Z,45.25
2019-05-25T13:57:54.288Z,43.26
2019-05-25T14:07:54.237Z,41.81
2019-05-25T14:17:54.325Z,44.76
2019-05-25T14:27:54.292Z,46.81
2019-05-25T14:37:54.278Z,47.76
2019-05-25T14:47:54.318Z,48.65
2019-05-25T14:57:54.293Z,49.06
2019-05-25T15:07:54.271Z,49.62
2019-05-25T15:17:54.349Z,49.63
2019-05-25T15:27:54.397Z,50.17
2019-05-25T15:37:54.359Z,49.95
2019-05-25T15:47:54.328Z,51.12
2019-05-25T15:57:54.413Z,51.85
2019-05-25T16:07:54.369Z,50.46
2019-05-25T16:17:54.317Z,51.41
2019-05-25T16:27:54.331Z,48.82
2019-05-25T16:37:54.414Z,48.57
2019-05-25T16:47:54.356Z,49.05
2019-05-25T16:57:54.414Z,49.44
2019-05-25T17:07:54.294Z,49.99
2019-05-25T17:17:54.363Z,51.12
2019-05-25T17:27:54.323Z,50.85
2019-05-25T17:37:54.295Z,49.95
2019-05-25T17:47:54.359Z,49.99
2019-05-25T17:57:54.343Z,50.94
2019-05-25T18:07:54.296Z,51.52
2019-05-25T18:17:54.369Z,52.14
2019-05-25T18:27:54.438Z,53.25
2019-05-25T18:37:54.371Z,53.98
2019-05-25T18:47:54.381Z,55.68
2019-05-25T18:57:54.326Z,57.97
2019-05-25T19:07:54.300Z,60.28
2019-05-25T19:17:54.367Z,62.22
2019-05-25T19:27:57.163Z,64.02
2019-05-25T19:37:54.293Z,66.24
2019-05-25T19:47:54.373Z,68.48
2019-05-25T19:57:54.348Z,70.43
2019-05-25T20:07:54.462Z,72.08
2019-05-25T20:17:54.373Z,72.82
2019-05-25T20:27:54.344Z,73.86
2019-05-25T20:37:54.278Z,76.11
2019-05-25T20:47:54.368Z,78.02
2019-05-25T20:57:54.355Z,79.34
2019-05-25T21:07:54.399Z,81.07
2019-05-25T21:17:54.377Z,81.98
2019-05-25T21:27:54.338Z,82.70
2019-05-25T21:37:54.426Z,83.37
2019-05-25T21:47:56.241Z,83.29
2019-05-25T21:57:54.350Z,84.23
2019-05-25T22:07:54.409Z,85.43
2019-05-25T22:17:54.427Z,85.72
2019-05-25T22:27:54.349Z,85.36
2019-05-25T22:37:55.021Z,83.68
2019-05-25T22:47:54.391Z,82.39
2019-05-25T22:57:54.361Z,82.81
2019-05-25T23:07:54.317Z,84.15
2019-05-25T23:17:54.359Z,84.86
2019-05-25T23:27:54.337Z,84.07
2019-05-25T23:37:54.396Z,85.90
2019-05-25T23:47:54.431Z,84.50
2019-05-25T23:57:54.331Z,87.52
